Terminal Aerodrome Forecast
Issued by NWS

Home | Current Version | Previous Version | Text Only | Print | Product List | Glossary On
Versions: 1 2 3 4 5 6 7 8 9 10 11 12 13 14 15 16
000
FTUS45 KRIW 232300
TAFCOD
TAF
KCOD 232329Z 2400/2424 34011KT P6SM SCT120 SCT200
     FM240100 20007KT P6SM VCSH SCT120 BKN150
     FM240600 25012G18KT P6SM FEW140 SCT200
      AMD LTD TO CLD VIS AND WIND=

USA.gov is the U.S. government's official web portal to all federal, state and local government web resources and services.